createdAt,value
2019-05-18T00:00:24.218Z,9.90
2019-05-18T00:04:27.662Z,9.90
2019-05-18T00:08:31.089Z,9.90
2019-05-18T00:12:34.555Z,9.90
2019-05-18T00:16:38.249Z,9.80
2019-05-18T00:20:41.998Z,9.60
2019-05-18T00:24:45.449Z,9.60
2019-05-18T00:28:48.983Z,9.60
2019-05-18T00:32:52.694Z,9.70
2019-05-18T00:36:56.147Z,9.80
2019-05-18T00:40:59.834Z,9.90
2019-05-18T00:45:04.054Z,9.90
2019-05-18T00:49:07.503Z,10.00
2019-05-18T00:53:11.312Z,10.00
2019-05-18T00:57:14.761Z,9.80
2019-05-18T01:01:18.222Z,9.50
2019-05-18T01:05:21.661Z,9.50
2019-05-18T01:09:25.147Z,9.40
2019-05-18T01:13:28.596Z,9.50
2019-05-18T01:17:32.038Z,9.20
2019-05-18T01:21:35.746Z,8.90
2019-05-18T01:25:39.221Z,8.70
2019-05-18T01:29:43.003Z,8.70
2019-05-18T01:33:46.704Z,8.70
2019-05-18T01:37:50.149Z,8.70
2019-05-18T01:41:53.601Z,8.60
2019-05-18T01:45:57.058Z,8.40
2019-05-18T01:50:00.520Z,8.40
2019-05-18T01:54:04.143Z,8.30
2019-05-18T01:58:07.611Z,8.10
2019-05-18T02:02:11.338Z,8.00
2019-05-18T02:06:14.800Z,7.90
2019-05-18T02:10:18.501Z,7.80
2019-05-18T02:14:21.955Z,7.70
2019-05-18T02:18:29.088Z,7.70
2019-05-18T02:22:30.586Z,7.50
2019-05-18T02:26:34.056Z,7.50
2019-05-18T02:30:37.486Z,7.40
2019-05-18T02:34:40.923Z,7.40
2019-05-18T02:38:44.373Z,7.20
2019-05-18T02:42:47.841Z,7.10
2019-05-18T02:46:51.402Z,7.20
2019-05-18T02:50:54.909Z,7.20
2019-05-18T02:54:58.542Z,7.30
2019-05-18T02:59:02.397Z,7.40
2019-05-18T03:03:05.901Z,7.50
2019-05-18T03:07:09.363Z,7.50
2019-05-18T03:11:12.818Z,7.40
2019-05-18T03:15:16.357Z,7.40
2019-05-18T03:19:20.143Z,7.50
2019-05-18T03:23:24.327Z,7.50
2019-05-18T03:27:27.778Z,7.60
2019-05-18T03:31:31.239Z,7.40
2019-05-18T03:35:34.951Z,7.30
2019-05-18T03:39:38.401Z,7.30
2019-05-18T03:43:42.132Z,7.30
2019-05-18T03:47:45.646Z,7.20
2019-05-18T03:51:49.111Z,7.10
2019-05-18T03:55:52.562Z,7.20
2019-05-18T03:59:56.266Z,7.30
2019-05-18T04:03:59.742Z,7.30
2019-05-18T04:08:03.173Z,7.40
2019-05-18T04:12:07.056Z,7.30
2019-05-18T04:16:10.746Z,7.40
2019-05-18T04:20:14.205Z,7.50
2019-05-18T04:24:17.755Z,7.60
2019-05-18T04:28:21.287Z,7.80
2019-05-18T04:32:24.734Z,8.00
2019-05-18T04:36:28.457Z,8.00
2019-05-18T04:40:31.907Z,8.10
2019-05-18T04:44:35.403Z,8.20
2019-05-18T04:48:39.097Z,8.50
2019-05-18T04:52:42.572Z,8.70
2019-05-18T04:56:46.028Z,9.00
2019-05-18T05:00:52.426Z,9.40
2019-05-18T05:04:56.860Z,10.00
2019-05-18T05:09:00.743Z,10.60
2019-05-18T05:13:04.329Z,11.00
2019-05-18T05:17:08.211Z,11.40
2019-05-18T05:21:12.098Z,11.70
2019-05-18T05:25:15.763Z,11.90
2019-05-18T05:29:19.646Z,12.10
2019-05-18T05:33:23.434Z,12.30
2019-05-18T05:37:26.885Z,12.60
2019-05-18T05:41:30.589Z,12.70
2019-05-18T05:45:34.556Z,12.80
2019-05-18T05:49:38.023Z,13.00
2019-05-18T05:53:41.512Z,13.10
2019-05-18T05:57:45.026Z,13.20
2019-05-18T06:01:48.738Z,13.30
2019-05-18T06:05:52.188Z,13.50
2019-05-18T06:09:55.899Z,13.60
2019-05-18T06:13:59.354Z,13.90
2019-05-18T06:18:02.819Z,14.10
2019-05-18T06:22:06.524Z,14.20
2019-05-18T06:26:10.007Z,14.30
2019-05-18T06:30:13.666Z,14.60
2019-05-18T06:34:17.129Z,14.70
2019-05-18T06:38:20.592Z,14.90
2019-05-18T06:42:24.033Z,15.10
2019-05-18T06:46:27.517Z,15.20
2019-05-18T06:50:31.458Z,15.50
2019-05-18T06:54:35.182Z,15.60
2019-05-18T06:58:39.205Z,15.80
2019-05-18T07:02:42.669Z,16.00
2019-05-18T07:06:46.166Z,16.10
2019-05-18T07:10:49.634Z,16.10
2019-05-18T07:14:53.103Z,16.20
2019-05-18T07:18:56.689Z,16.20
2019-05-18T07:23:00.144Z,16.50
2019-05-18T07:27:03.615Z,16.80
2019-05-18T07:31:07.097Z,17.00
2019-05-18T07:35:12.271Z,17.30
2019-05-18T07:39:16.015Z,17.30
2019-05-18T07:43:19.470Z,17.60
2019-05-18T07:47:22.931Z,17.70
2019-05-18T07:51:36.714Z,17.60
2019-05-18T07:55:32.131Z,17.60
2019-05-18T07:59:35.650Z,17.60
2019-05-18T08:03:39.131Z,17.80
2019-05-18T08:07:42.629Z,18.20
2019-05-18T08:11:46.106Z,18.20
2019-05-18T08:15:49.857Z,18.60
2019-05-18T08:19:53.582Z,18.60
2019-05-18T08:23:57.041Z,19.00
2019-05-18T08:28:00.506Z,19.30
2019-05-18T08:32:03.970Z,19.40
2019-05-18T08:36:07.432Z,19.30
2019-05-18T08:40:11.229Z,19.20
2019-05-18T08:44:14.995Z,19.70
2019-05-18T08:48:18.466Z,19.70
2019-05-18T08:52:22.434Z,19.60
2019-05-18T08:56:25.898Z,20.00
2019-05-18T09:00:29.715Z,20.00
2019-05-18T09:04:33.165Z,20.10
2019-05-18T09:08:36.654Z,20.10
2019-05-18T09:12:40.290Z,20.20
2019-05-18T09:16:44.003Z,20.30
2019-05-18T09:20:47.466Z,20.60
2019-05-18T09:24:51.170Z,20.70
2019-05-18T09:28:54.927Z,20.90
2019-05-18T09:32:58.373Z,21.00
2019-05-18T09:37:01.920Z,20.70
2019-05-18T09:41:05.427Z,20.80
2019-05-18T09:45:10.023Z,21.00
2019-05-18T09:49:13.476Z,21.00
2019-05-18T09:53:16.946Z,21.00
2019-05-18T09:57:20.441Z,21.10
2019-05-18T10:01:24.228Z,21.20
2019-05-18T10:05:27.702Z,20.90
2019-05-18T10:09:38.824Z,21.30
2019-05-18T10:13:36.503Z,21.50
2019-05-18T10:17:39.965Z,21.60
2019-05-18T10:21:43.732Z,21.80
2019-05-18T10:25:47.491Z,21.30
2019-05-18T10:29:51.013Z,21.00
2019-05-18T10:33:54.499Z,21.10
2019-05-18T10:37:57.955Z,21.40
2019-05-18T10:42:01.666Z,21.50
2019-05-18T10:46:05.152Z,21.80
2019-05-18T10:50:09.621Z,22.00
2019-05-18T10:54:13.102Z,21.60
2019-05-18T10:58:16.578Z,21.40
2019-05-18T11:02:20.034Z,21.60
2019-05-18T11:06:23.724Z,21.70
2019-05-18T11:10:27.258Z,21.60
2019-05-18T11:14:30.820Z,21.60
2019-05-18T11:18:34.270Z,21.50
2019-05-18T11:22:37.737Z,21.40
2019-05-18T11:26:41.181Z,21.40
2019-05-18T11:30:44.637Z,21.30
2019-05-18T11:34:48.156Z,21.40
2019-05-18T11:38:51.632Z,21.40
2019-05-18T11:42:55.092Z,21.30
2019-05-18T11:46:59.569Z,21.50
2019-05-18T11:51:03.016Z,21.30
2019-05-18T11:55:08.216Z,21.40
2019-05-18T11:59:15.373Z,21.30
2019-05-18T12:03:16.864Z,21.40
2019-05-18T12:07:20.394Z,21.70
2019-05-18T12:11:23.863Z,21.90
2019-05-18T12:15:27.654Z,21.50
2019-05-18T12:19:31.387Z,21.70
2019-05-18T12:23:34.868Z,21.70
2019-05-18T12:27:38.529Z,21.60
2019-05-18T12:31:42.342Z,21.70
2019-05-18T12:35:45.859Z,21.70
2019-05-18T12:39:49.668Z,21.80
2019-05-18T12:43:53.118Z,21.80
2019-05-18T12:47:56.598Z,21.70
2019-05-18T12:52:00.046Z,21.60
2019-05-18T12:56:03.491Z,21.40
2019-05-18T13:00:09.962Z,21.30
2019-05-18T13:04:13.435Z,21.40
2019-05-18T13:08:16.886Z,21.50
2019-05-18T13:12:20.662Z,21.60
2019-05-18T13:16:24.120Z,21.80
2019-05-18T13:20:28.083Z,21.70
2019-05-18T13:24:44.249Z,21.30
2019-05-18T13:28:37.236Z,21.30
2019-05-18T13:32:40.998Z,21.00
2019-05-18T13:36:44.575Z,21.40
2019-05-18T13:40:48.152Z,21.40
2019-05-18T13:44:51.695Z,21.60
2019-05-18T13:48:55.280Z,21.80
2019-05-18T13:52:58.870Z,21.90
2019-05-18T13:57:02.380Z,22.00
2019-05-18T14:01:05.844Z,22.10
2019-05-18T14:05:09.742Z,21.30
2019-05-18T14:09:13.311Z,21.40
2019-05-18T14:13:16.874Z,21.80
2019-05-18T14:17:20.466Z,22.00
2019-05-18T14:21:24.330Z,21.90
2019-05-18T14:25:28.015Z,21.80
2019-05-18T14:29:34.305Z,21.70
2019-05-18T14:33:38.207Z,21.90
2019-05-18T14:37:41.804Z,22.10
2019-05-18T14:41:45.322Z,21.90
2019-05-18T14:45:49.522Z,21.70
2019-05-18T14:49:53.289Z,21.80
2019-05-18T14:53:56.897Z,21.80
2019-05-18T14:58:00.470Z,21.80
2019-05-18T15:02:04.076Z,21.80
2019-05-18T15:06:07.986Z,21.80
2019-05-18T15:10:13.242Z,21.80
2019-05-18T15:14:17.777Z,21.90
2019-05-18T15:18:21.398Z,21.90
2019-05-18T15:22:24.998Z,21.90
2019-05-18T15:26:28.740Z,21.90
2019-05-18T15:30:32.327Z,22.10
2019-05-18T15:34:36.228Z,22.10
2019-05-18T15:38:39.813Z,22.00
2019-05-18T15:42:43.367Z,22.10
2019-05-18T15:46:46.965Z,22.00
2019-05-18T15:50:50.864Z,22.00
2019-05-18T15:54:54.447Z,21.90
2019-05-18T15:59:00.011Z,22.00
2019-05-18T16:03:02.852Z,22.10
2019-05-18T16:07:06.750Z,21.90
2019-05-18T16:11:10.331Z,21.90
2019-05-18T16:15:14.253Z,21.80
2019-05-18T16:19:17.919Z,22.10
2019-05-18T16:23:21.374Z,22.10
2019-05-18T16:27:25.152Z,22.10
2019-05-18T16:31:28.930Z,22.10
2019-05-18T16:35:32.399Z,21.90
2019-05-18T16:39:35.851Z,21.90
2019-05-18T16:43:39.298Z,21.80
2019-05-18T16:47:42.839Z,21.70
2019-05-18T16:51:46.451Z,21.70
2019-05-18T16:55:50.032Z,21.60
2019-05-18T16:59:53.960Z,21.60
2019-05-18T17:03:57.639Z,21.60
2019-05-18T17:08:01.333Z,21.50
2019-05-18T17:12:05.155Z,21.40
2019-05-18T17:16:09.916Z,21.30
2019-05-18T17:20:13.847Z,21.20
2019-05-18T17:24:17.706Z,21.20
2019-05-18T17:28:21.675Z,21.10
2019-05-18T17:32:25.346Z,21.10
2019-05-18T17:36:31.683Z,21.00
2019-05-18T17:40:35.383Z,21.00
2019-05-18T17:44:40.273Z,21.00
2019-05-18T17:48:43.817Z,20.90
2019-05-18T17:52:47.645Z,20.90
2019-05-18T17:56:51.150Z,20.80
2019-05-18T18:00:54.647Z,20.60
2019-05-18T18:04:58.222Z,20.50
2019-05-18T18:09:01.696Z,20.40
2019-05-18T18:13:05.554Z,20.30
2019-05-18T18:17:10.906Z,20.20
2019-05-18T18:21:15.450Z,19.80
2019-05-18T18:25:19.134Z,19.40
2019-05-18T18:29:22.990Z,19.00
2019-05-18T18:33:26.586Z,18.40
2019-05-18T18:37:30.544Z,17.90
2019-05-18T18:41:34.139Z,17.50
2019-05-18T18:45:37.706Z,17.30
2019-05-18T18:49:41.707Z,17.00
2019-05-18T18:53:45.187Z,16.70
2019-05-18T18:57:48.757Z,16.10
2019-05-18T19:01:52.260Z,15.90
2019-05-18T19:05:55.786Z,15.70
2019-05-18T19:09:59.287Z,15.40
2019-05-18T19:14:03.326Z,15.40
2019-05-18T19:18:07.102Z,15.10
2019-05-18T19:22:10.648Z,15.00
2019-05-18T19:26:14.329Z,14.80
2019-05-18T19:30:18.325Z,14.60
2019-05-18T19:34:22.421Z,14.50
2019-05-18T19:38:26.388Z,14.40
2019-05-18T19:42:30.017Z,14.30
2019-05-18T19:46:33.630Z,14.00
2019-05-18T19:50:37.552Z,13.90
2019-05-18T19:54:41.067Z,13.70
2019-05-18T19:58:44.748Z,13.60
2019-05-18T20:02:48.719Z,13.50
2019-05-18T20:06:52.609Z,13.40
2019-05-18T20:10:56.696Z,13.30
2019-05-18T20:15:00.433Z,13.20
2019-05-18T20:19:04.203Z,13.00
2019-05-18T20:23:08.720Z,13.00
2019-05-18T20:27:12.410Z,13.00
2019-05-18T20:31:16.231Z,12.90
2019-05-18T20:35:20.101Z,12.80
2019-05-18T20:39:24.659Z,12.70
2019-05-18T20:43:28.279Z,12.60
2019-05-18T20:47:32.131Z,12.60
2019-05-18T20:51:35.778Z,12.60
2019-05-18T20:55:39.397Z,12.60
2019-05-18T20:59:43.337Z,12.40
2019-05-18T21:03:46.882Z,12.30
2019-05-18T21:07:50.334Z,12.10
2019-05-18T21:11:53.815Z,11.90
2019-05-18T21:15:57.506Z,12.00
2019-05-18T21:20:01.290Z,11.90
2019-05-18T21:24:04.924Z,11.90
2019-05-18T21:28:09.369Z,11.60
2019-05-18T21:32:13.092Z,11.30
2019-05-18T21:36:16.814Z,11.20
2019-05-18T21:40:20.267Z,11.20
2019-05-18T21:44:24.034Z,11.30
2019-05-18T21:48:27.494Z,11.40
2019-05-18T21:52:30.951Z,11.50
2019-05-18T21:56:34.674Z,11.30
2019-05-18T22:00:38.410Z,11.30
2019-05-18T22:04:41.864Z,11.20
2019-05-18T22:08:45.335Z,10.90
2019-05-18T22:12:48.785Z,10.80
2019-05-18T22:16:52.243Z,10.80
2019-05-18T22:20:55.961Z,10.60
2019-05-18T22:25:00.752Z,10.60
2019-05-18T22:29:04.220Z,10.40
2019-05-18T22:33:07.733Z,10.30
2019-05-18T22:37:11.238Z,10.30
2019-05-18T22:41:14.970Z,10.20
2019-05-18T22:45:18.421Z,10.00
2019-05-18T22:49:22.149Z,10.00
2019-05-18T22:53:25.601Z,9.80
2019-05-18T22:57:29.059Z,9.50
2019-05-18T23:01:32.593Z,9.50
2019-05-18T23:05:36.051Z,9.60
2019-05-18T23:09:39.788Z,9.60
2019-05-18T23:13:43.906Z,9.70
2019-05-18T23:17:47.636Z,9.70
2019-05-18T23:21:51.120Z,9.60
2019-05-18T23:25:54.668Z,9.50
2019-05-18T23:29:58.438Z,9.30
2019-05-18T23:34:01.912Z,9.30
2019-05-18T23:38:05.457Z,9.30
2019-05-18T23:42:08.977Z,9.30
2019-05-18T23:46:12.432Z,9.30
2019-05-18T23:50:16.147Z,9.40
2019-05-18T23:54:19.847Z,9.30
2019-05-18T23:58:23.587Z,9.10
